Time,TemperatureF,DewpointF,PressureIn,WindDirection,WindDirectionDegrees,WindSpeedMPH,WindSpeedGustMPH,Humidity,HourlyPrecipIn,Conditions,Clouds,dailyrainin,SoftwareType,DateUTC
2014-07-23 00:01:00,67.6,60.9,30.07,North,354,0.0,0.0,79,0.00,,,0.00,Wunderground v.1.15,2014-07-23 05:01:00,
2014-07-23 00:11:00,67.1,60.7,30.08,NNE,26,0.0,0.0,80,0.00,,,0.00,Wunderground v.1.15,2014-07-23 05:11:00,
2014-07-23 00:21:00,66.7,60.7,30.08,NNW,336,0.0,0.0,81,0.00,,,0.00,Wunderground v.1.15,2014-07-23 05:21:00,
2014-07-23 00:31:00,66.3,60.3,30.08,NNW,337,0.0,0.0,81,0.00,,,0.00,Wunderground v.1.15,2014-07-23 05:31:00,
2014-07-23 00:41:00,66.0,60.0,30.09,WSW,253,0.0,0.0,81,0.00,,,0.00,Wunderground v.1.15,2014-07-23 05:41:00,
2014-07-23 00:51:00,65.6,60.0,30.09,North,354,0.0,1.0,82,0.00,,,0.00,Wunderground v.1.15,2014-07-23 05:51:00,
2014-07-23 01:01:00,65.5,59.9,30.09,NNW,347,0.0,0.0,82,0.00,,,0.00,Wunderground v.1.15,2014-07-23 06:01:00,
2014-07-23 01:11:00,65.2,59.6,30.10,NW,322,0.0,0.0,82,0.00,,,0.00,Wunderground v.1.15,2014-07-23 06:11:00,
2014-07-23 01:21:00,64.9,59.6,30.10,NW,322,0.0,1.0,83,0.00,,,0.00,Wunderground v.1.15,2014-07-23 06:21:00,
2014-07-23 01:31:00,64.8,59.5,30.11,North,353,0.0,0.0,83,0.00,,,0.00,Wunderground v.1.15,2014-07-23 06:31:00,
2014-07-23 01:41:00,64.7,59.4,30.11,North,360,0.0,0.0,83,0.00,,,0.00,Wunderground v.1.15,2014-07-23 06:41:00,
2014-07-23 01:51:00,64.5,59.6,30.10,NW,323,0.0,0.0,84,0.00,,,0.00,Wunderground v.1.15,2014-07-23 06:51:00,
2014-07-23 02:01:00,64.1,59.2,30.10,ENE,78,0.0,0.0,84,0.00,,,0.00,Wunderground v.1.15,2014-07-23 07:01:00,
2014-07-23 02:11:00,63.8,59.2,30.10,NNW,347,0.0,0.0,85,0.00,,,0.00,Wunderground v.1.15,2014-07-23 07:11:00,
2014-07-23 02:21:00,63.3,58.7,30.10,North,349,0.0,0.0,85,0.00,,,0.00,Wunderground v.1.15,2014-07-23 07:21:00,
2014-07-23 02:31:00,62.9,58.6,30.10,North,353,0.0,0.0,86,0.00,,,0.00,Wunderground v.1.15,2014-07-23 07:31:00,
2014-07-23 02:41:00,62.6,58.7,30.11,NNW,347,0.0,0.0,87,0.00,,,0.00,Wunderground v.1.15,2014-07-23 07:41:00,
2014-07-23 02:51:00,62.3,58.4,30.11,NNW,328,0.0,0.0,87,0.00,,,0.00,Wunderground v.1.15,2014-07-23 07:51:00,
2014-07-23 03:01:00,62.0,58.1,30.11,NNW,329,0.0,0.0,87,0.00,,,0.00,Wunderground v.1.15,2014-07-23 08:01:00,
2014-07-23 03:11:00,61.7,58.1,30.11,NW,319,0.0,0.0,88,0.00,,,0.00,Wunderground v.1.15,2014-07-23 08:11:00,
2014-07-23 03:21:00,61.4,57.8,30.11,NNW,342,0.0,0.0,88,0.00,,,0.00,Wunderground v.1.15,2014-07-23 08:21:00,
2014-07-23 03:31:00,61.2,57.6,30.11,NNW,333,0.0,0.0,88,0.00,,,0.00,Wunderground v.1.15,2014-07-23 08:31:00,
2014-07-23 03:41:00,60.9,57.3,30.11,NNW,343,0.0,0.0,88,0.00,,,0.00,Wunderground v.1.15,2014-07-23 08:41:00,
2014-07-23 03:51:00,60.7,57.4,30.11,NW,323,0.0,0.0,89,0.00,,,0.00,Wunderground v.1.15,2014-07-23 08:51:00,
2014-07-23 04:01:00,60.4,57.1,30.12,NW,323,0.0,0.0,89,0.00,,,0.00,Wunderground v.1.15,2014-07-23 09:01:00,
2014-07-23 04:11:00,60.2,56.9,30.12,NNW,340,0.0,0.0,89,0.00,,,0.00,Wunderground v.1.15,2014-07-23 09:11:00,
2014-07-23 04:21:00,60.0,56.7,30.12,NNW,340,0.0,0.0,89,0.00,,,0.00,Wunderground v.1.15,2014-07-23 09:21:00,
2014-07-23 04:31:00,59.8,56.6,30.11,North,350,0.0,0.0,89,0.00,,,0.00,Wunderground v.1.15,2014-07-23 09:31:00,
2014-07-23 04:41:00,59.4,56.5,30.11,NNW,338,0.0,0.0,90,0.00,,,0.00,Wunderground v.1.15,2014-07-23 09:41:00,
2014-07-23 04:51:00,59.3,56.4,30.11,NNW,337,0.0,0.0,90,0.00,,,0.00,Wunderground v.1.15,2014-07-23 09:51:00,
2014-07-23 05:01:00,59.4,56.5,30.12,NW,321,0.0,0.0,90,0.00,,,0.00,Wunderground v.1.15,2014-07-23 10:01:00,
2014-07-23 05:11:00,59.4,56.5,30.12,North,11,0.0,0.0,90,0.00,,,0.00,Wunderground v.1.15,2014-07-23 10:11:00,
2014-07-23 05:21:00,59.1,56.2,30.13,NNW,340,0.0,0.0,90,0.00,,,0.00,Wunderground v.1.15,2014-07-23 10:21:00,
2014-07-23 05:31:00,58.9,56.3,30.13,NW,322,0.0,0.0,91,0.00,,,0.00,Wunderground v.1.15,2014-07-23 10:31:00,
2014-07-23 05:41:00,58.7,56.1,30.13,NW,322,0.0,0.0,91,0.00,,,0.00,Wunderground v.1.15,2014-07-23 10:41:00,
2014-07-23 05:51:00,58.5,55.9,30.13,NNW,343,0.0,0.0,91,0.00,,,0.00,Wunderground v.1.15,2014-07-23 10:51:00,
2014-07-23 06:01:00,58.4,56.1,30.13,NNW,343,0.0,0.0,92,0.00,,,0.00,Wunderground v.1.15,2014-07-23 11:01:00,
2014-07-23 06:11:00,58.2,55.9,30.13,NNW,343,0.0,0.0,92,0.00,,,0.00,Wunderground v.1.15,2014-07-23 11:11:00,
2014-07-23 06:21:00,58.3,56.0,30.14,NNW,343,0.0,0.0,92,0.00,,,0.00,Wunderground v.1.15,2014-07-23 11:21:00,
2014-07-23 06:31:00,58.5,56.2,30.14,NW,325,0.0,0.0,92,0.00,,,0.00,Wunderground v.1.15,2014-07-23 11:31:00,